sensor_id;sensor_type;location;lat;lon;timestamp;pressure;altitude;pressure_sealevel;temperature
18219;BMP180;9234;49.344;11.120;2022-12-29T00:01:12;97121.00;;;7.90
18219;BMP180;9234;49.344;11.120;2022-12-29T00:03:40;97130.00;;;8.00
18219;BMP180;9234;49.344;11.120;2022-12-29T00:06:09;97131.00;;;8.00
18219;BMP180;9234;49.344;11.120;2022-12-29T00:08:37;97134.00;;;8.00
18219;BMP180;9234;49.344;11.120;2022-12-29T00:11:12;97131.00;;;8.10
18219;BMP180;9234;49.344;11.120;2022-12-29T00:13:41;97125.00;;;8.10
18219;BMP180;9234;49.344;11.120;2022-12-29T00:16:28;97122.00;;;8.10
18219;BMP180;9234;49.344;11.120;2022-12-29T00:18:57;97114.00;;;8.20
18219;BMP180;9234;49.344;11.120;2022-12-29T00:21:27;97112.00;;;8.20
18219;BMP180;9234;49.344;11.120;2022-12-29T00:24:18;97114.00;;;8.20
18219;BMP180;9234;49.344;11.120;2022-12-29T00:27:12;97126.00;;;8.20
18219;BMP180;9234;49.344;11.120;2022-12-29T00:29:59;97098.00;;;8.20
18219;BMP180;9234;49.344;11.120;2022-12-29T00:32:45;97118.00;;;8.20
18219;BMP180;9234;49.344;11.120;2022-12-29T00:35:36;97110.00;;;8.30
18219;BMP180;9234;49.344;11.120;2022-12-29T00:38:08;97104.00;;;8.30
18219;BMP180;9234;49.344;11.120;2022-12-29T00:40:54;97106.00;;;8.30
18219;BMP180;9234;49.344;11.120;2022-12-29T00:43:42;97101.00;;;8.30
18219;BMP180;9234;49.344;11.120;2022-12-29T00:46:27;97103.00;;;8.30
18219;BMP180;9234;49.344;11.120;2022-12-29T00:48:56;97107.00;;;8.40
18219;BMP180;9234;49.344;11.120;2022-12-29T00:51:44;97088.00;;;8.30
18219;BMP180;9234;49.344;11.120;2022-12-29T00:54:13;97098.00;;;8.40
18219;BMP180;9234;49.344;11.120;2022-12-29T00:56:46;97090.00;;;8.40
18219;BMP180;9234;49.344;11.120;2022-12-29T00:59:18;97103.00;;;8.40
18219;BMP180;9234;49.344;11.120;2022-12-29T01:01:47;97085.00;;;8.40
18219;BMP180;9234;49.344;11.120;2022-12-29T01:04:16;97092.00;;;8.40
18219;BMP180;9234;49.344;11.120;2022-12-29T01:06:44;97086.00;;;8.40
18219;BMP180;9234;49.344;11.120;2022-12-29T01:09:16;97087.00;;;8.40
18219;BMP180;9234;49.344;11.120;2022-12-29T01:12:02;97078.00;;;8.40
18219;BMP180;9234;49.344;11.120;2022-12-29T01:14:32;97078.00;;;8.40
18219;BMP180;9234;49.344;11.120;2022-12-29T01:17:03;97077.00;;;8.40
18219;BMP180;9234;49.344;11.120;2022-12-29T01:19:32;97095.00;;;8.50
18219;BMP180;9234;49.344;11.120;2022-12-29T01:22:01;97083.00;;;8.50
18219;BMP180;9234;49.344;11.120;2022-12-29T01:24:29;97085.00;;;8.50
18219;BMP180;9234;49.344;11.120;2022-12-29T01:26:57;97083.00;;;8.60
18219;BMP180;9234;49.344;11.120;2022-12-29T01:29:25;97076.00;;;8.60
18219;BMP180;9234;49.344;11.120;2022-12-29T01:31:55;97071.00;;;8.60
18219;BMP180;9234;49.344;11.120;2022-12-29T01:34:23;97056.00;;;8.60
18219;BMP180;9234;49.344;11.120;2022-12-29T01:36:51;97074.00;;;8.70
18219;BMP180;9234;49.344;11.120;2022-12-29T01:39:19;97073.00;;;8.70
18219;BMP180;9234;49.344;11.120;2022-12-29T01:41:48;97068.00;;;8.70
18219;BMP180;9234;49.344;11.120;2022-12-29T01:44:52;97072.00;;;8.70
18219;BMP180;9234;49.344;11.120;2022-12-29T01:47:31;97075.00;;;8.70
18219;BMP180;9234;49.344;11.120;2022-12-29T01:50:06;97074.00;;;8.80
18219;BMP180;9234;49.344;11.120;2022-12-29T01:52:42;97065.00;;;8.80
18219;BMP180;9234;49.344;11.120;2022-12-29T01:55:12;97067.00;;;8.80
18219;BMP180;9234;49.344;11.120;2022-12-29T01:57:47;97055.00;;;8.80
18219;BMP180;9234;49.344;11.120;2022-12-29T02:00:17;97037.00;;;8.80
18219;BMP180;9234;49.344;11.120;2022-12-29T02:02:52;97046.00;;;8.90
18219;BMP180;9234;49.344;11.120;2022-12-29T02:05:29;97028.00;;;8.90
18219;BMP180;9234;49.344;11.120;2022-12-29T02:08:01;97027.00;;;8.90
18219;BMP180;9234;49.344;11.120;2022-12-29T02:10:33;97033.00;;;8.90
18219;BMP180;9234;49.344;11.120;2022-12-29T02:13:02;97029.00;;;8.90
18219;BMP180;9234;49.344;11.120;2022-12-29T02:15:42;97033.00;;;9.00
18219;BMP180;9234;49.344;11.120;2022-12-29T02:18:29;97027.00;;;9.00
18219;BMP180;9234;49.344;11.120;2022-12-29T02:21:35;97036.00;;;9.00
18219;BMP180;9234;49.344;11.120;2022-12-29T02:24:52;97042.00;;;9.00
18219;BMP180;9234;49.344;11.120;2022-12-29T02:27:55;97034.00;;;9.00
18219;BMP180;9234;49.344;11.120;2022-12-29T02:31:00;97027.00;;;9.00
18219;BMP180;9234;49.344;11.120;2022-12-29T02:33:51;97024.00;;;9.10
18219;BMP180;9234;49.344;11.120;2022-12-29T02:36:32;97031.00;;;9.10
18219;BMP180;9234;49.344;11.120;2022-12-29T02:39:18;97028.00;;;9.10
18219;BMP180;9234;49.344;11.120;2022-12-29T02:41:58;97013.00;;;9.10
18219;BMP180;9234;49.344;11.120;2022-12-29T02:44:40;97018.00;;;9.10
18219;BMP180;9234;49.344;11.120;2022-12-29T02:47:22;97022.00;;;9.10
18219;BMP180;9234;49.344;11.120;2022-12-29T02:50:01;97017.00;;;9.10
18219;BMP180;9234;49.344;11.120;2022-12-29T02:52:39;97017.00;;;9.10
18219;BMP180;9234;49.344;11.120;2022-12-29T02:55:11;97003.00;;;9.10
18219;BMP180;9234;49.344;11.120;2022-12-29T02:57:38;97010.00;;;9.10
18219;BMP180;9234;49.344;11.120;2022-12-29T03:00:11;97008.00;;;9.10
18219;BMP180;9234;49.344;11.120;2022-12-29T03:03:14;96997.00;;;9.10
18219;BMP180;9234;49.344;11.120;2022-12-29T03:08:55;96999.00;;;9.10
18219;BMP180;9234;49.344;11.120;2022-12-29T03:11:35;96987.00;;;9.10
18219;BMP180;9234;49.344;11.120;2022-12-29T03:14:28;96988.00;;;9.10
18219;BMP180;9234;49.344;11.120;2022-12-29T03:17:26;97000.00;;;9.10
18219;BMP180;9234;49.344;11.120;2022-12-29T03:20:04;96988.00;;;9.10
18219;BMP180;9234;49.344;11.120;2022-12-29T03:22:41;96996.00;;;9.10
18219;BMP180;9234;49.344;11.120;2022-12-29T03:25:21;97000.00;;;9.10
18219;BMP180;9234;49.344;11.120;2022-12-29T03:27:56;96989.00;;;9.10
18219;BMP180;9234;49.344;11.120;2022-12-29T03:30:28;96993.00;;;9.10
18219;BMP180;9234;49.344;11.120;2022-12-29T03:33:02;97003.00;;;9.10
18219;BMP180;9234;49.344;11.120;2022-12-29T03:35:37;96986.00;;;9.10
18219;BMP180;9234;49.344;11.120;2022-12-29T03:38:15;96999.00;;;9.10
18219;BMP180;9234;49.344;11.120;2022-12-29T03:40:50;96986.00;;;9.10
18219;BMP180;9234;49.344;11.120;2022-12-29T03:43:20;96985.00;;;9.10
18219;BMP180;9234;49.344;11.120;2022-12-29T03:45:49;96985.00;;;9.10
18219;BMP180;9234;49.344;11.120;2022-12-29T03:48:17;96978.00;;;9.10
18219;BMP180;9234;49.344;11.120;2022-12-29T03:50:48;96988.00;;;9.10
18219;BMP180;9234;49.344;11.120;2022-12-29T03:53:17;96982.00;;;9.10
18219;BMP180;9234;49.344;11.120;2022-12-29T03:55:45;96980.00;;;9.10
18219;BMP180;9234;49.344;11.120;2022-12-29T03:58:13;96981.00;;;9.10
18219;BMP180;9234;49.344;11.120;2022-12-29T04:01:08;96975.00;;;9.10
18219;BMP180;9234;49.344;11.120;2022-12-29T04:03:38;96991.00;;;9.10
18219;BMP180;9234;49.344;11.120;2022-12-29T04:06:08;96984.00;;;9.10
18219;BMP180;9234;49.344;11.120;2022-12-29T04:08:46;96992.00;;;9.10
18219;BMP180;9234;49.344;11.120;2022-12-29T04:11:14;96975.00;;;9.10
18219;BMP180;9234;49.344;11.120;2022-12-29T04:13:44;96986.00;;;9.10
18219;BMP180;9234;49.344;11.120;2022-12-29T04:16:16;96988.00;;;9.10
18219;BMP180;9234;49.344;11.120;2022-12-29T04:18:45;96982.00;;;9.10
18219;BMP180;9234;49.344;11.120;2022-12-29T04:21:14;96987.00;;;9.10
18219;BMP180;9234;49.344;11.120;2022-12-29T04:23:44;96980.00;;;9.10
18219;BMP180;9234;49.344;11.120;2022-12-29T04:26:13;96983.00;;;9.00
18219;BMP180;9234;49.344;11.120;2022-12-29T04:28:54;96990.00;;;9.00
18219;BMP180;9234;49.344;11.120;2022-12-29T04:31:38;96996.00;;;9.00
18219;BMP180;9234;49.344;11.120;2022-12-29T04:34:07;96989.00;;;9.00
18219;BMP180;9234;49.344;11.120;2022-12-29T04:36:36;96981.00;;;8.90
18219;BMP180;9234;49.344;11.120;2022-12-29T04:39:07;96986.00;;;8.90
18219;BMP180;9234;49.344;11.120;2022-12-29T04:41:36;96989.00;;;8.90
18219;BMP180;9234;49.344;11.120;2022-12-29T04:44:07;96988.00;;;8.90
18219;BMP180;9234;49.344;11.120;2022-12-29T04:46:54;96987.00;;;9.00
18219;BMP180;9234;49.344;11.120;2022-12-29T04:49:45;96987.00;;;9.00
18219;BMP180;9234;49.344;11.120;2022-12-29T04:52:37;96979.00;;;9.00
18219;BMP180;9234;49.344;11.120;2022-12-29T04:55:08;96978.00;;;9.00
18219;BMP180;9234;49.344;11.120;2022-12-29T04:57:37;96990.00;;;9.00
18219;BMP180;9234;49.344;11.120;2022-12-29T05:00:08;96979.00;;;9.10
18219;BMP180;9234;49.344;11.120;2022-12-29T05:02:37;96983.00;;;9.10
18219;BMP180;9234;49.344;11.120;2022-12-29T05:05:07;96964.00;;;9.10
18219;BMP180;9234;49.344;11.120;2022-12-29T05:07:41;96960.00;;;9.00
18219;BMP180;9234;49.344;11.120;2022-12-29T05:10:10;96975.00;;;9.00
18219;BMP180;9234;49.344;11.120;2022-12-29T05:12:40;96968.00;;;8.90
18219;BMP180;9234;49.344;11.120;2022-12-29T05:15:10;96968.00;;;8.80
18219;BMP180;9234;49.344;11.120;2022-12-29T05:17:39;96992.00;;;8.80
18219;BMP180;9234;49.344;11.120;2022-12-29T05:20:09;96991.00;;;8.80
18219;BMP180;9234;49.344;11.120;2022-12-29T05:22:37;96991.00;;;8.80
18219;BMP180;9234;49.344;11.120;2022-12-29T05:25:09;96993.00;;;8.80
18219;BMP180;9234;49.344;11.120;2022-12-29T05:27:50;96986.00;;;8.90
18219;BMP180;9234;49.344;11.120;2022-12-29T05:30:39;97001.00;;;8.90
18219;BMP180;9234;49.344;11.120;2022-12-29T05:33:07;96998.00;;;9.00
18219;BMP180;9234;49.344;11.120;2022-12-29T05:35:39;96991.00;;;9.00
18219;BMP180;9234;49.344;11.120;2022-12-29T05:38:07;96993.00;;;9.00
18219;BMP180;9234;49.344;11.120;2022-12-29T05:40:37;96992.00;;;8.90
18219;BMP180;9234;49.344;11.120;2022-12-29T05:43:13;96981.00;;;8.90
18219;BMP180;9234;49.344;11.120;2022-12-29T05:46:11;96986.00;;;8.80
18219;BMP180;9234;49.344;11.120;2022-12-29T05:49:06;96980.00;;;8.70
18219;BMP180;9234;49.344;11.120;2022-12-29T05:51:45;96981.00;;;8.70
18219;BMP180;9234;49.344;11.120;2022-12-29T05:54:14;96984.00;;;8.60
18219;BMP180;9234;49.344;11.120;2022-12-29T05:56:43;96986.00;;;8.60
18219;BMP180;9234;49.344;11.120;2022-12-29T05:59:12;96986.00;;;8.50
18219;BMP180;9234;49.344;11.120;2022-12-29T06:01:41;96984.00;;;8.50
18219;BMP180;9234;49.344;11.120;2022-12-29T06:04:11;97000.00;;;8.40
18219;BMP180;9234;49.344;11.120;2022-12-29T06:06:40;96991.00;;;8.40
18219;BMP180;9234;49.344;11.120;2022-12-29T06:09:15;96996.00;;;8.30
18219;BMP180;9234;49.344;11.120;2022-12-29T06:11:44;97003.00;;;8.30
18219;BMP180;9234;49.344;11.120;2022-12-29T06:14:12;97008.00;;;8.20
18219;BMP180;9234;49.344;11.120;2022-12-29T06:16:41;97012.00;;;8.20
18219;BMP180;9234;49.344;11.120;2022-12-29T06:19:12;97005.00;;;8.10
18219;BMP180;9234;49.344;11.120;2022-12-29T06:21:40;97007.00;;;8.10
18219;BMP180;9234;49.344;11.120;2022-12-29T06:24:09;96985.00;;;8.00
18219;BMP180;9234;49.344;11.120;2022-12-29T06:26:38;96997.00;;;8.00
18219;BMP180;9234;49.344;11.120;2022-12-29T06:29:09;96990.00;;;7.90
18219;BMP180;9234;49.344;11.120;2022-12-29T06:31:37;97006.00;;;7.90
18219;BMP180;9234;49.344;11.120;2022-12-29T06:34:06;97001.00;;;7.80
18219;BMP180;9234;49.344;11.120;2022-12-29T06:36:36;96999.00;;;7.80
18219;BMP180;9234;49.344;11.120;2022-12-29T06:39:04;97008.00;;;7.80
18219;BMP180;9234;49.344;11.120;2022-12-29T06:41:34;97009.00;;;7.70
18219;BMP180;9234;49.344;11.120;2022-12-29T06:44:22;97004.00;;;7.60
18219;BMP180;9234;49.344;11.120;2022-12-29T06:46:56;97013.00;;;7.60
18219;BMP180;9234;49.344;11.120;2022-12-29T06:49:24;97021.00;;;7.60
18219;BMP180;9234;49.344;11.120;2022-12-29T06:51:52;97000.00;;;7.50
18219;BMP180;9234;49.344;11.120;2022-12-29T06:54:21;96985.00;;;7.50
18219;BMP180;9234;49.344;11.120;2022-12-29T06:56:49;97005.00;;;7.50
18219;BMP180;9234;49.344;11.120;2022-12-29T06:59:17;97005.00;;;7.50
18219;BMP180;9234;49.344;11.120;2022-12-29T07:01:47;97009.00;;;7.50
18219;BMP180;9234;49.344;11.120;2022-12-29T07:04:15;97001.00;;;7.40
18219;BMP180;9234;49.344;11.120;2022-12-29T07:06:44;97008.00;;;7.40
18219;BMP180;9234;49.344;11.120;2022-12-29T07:09:12;97001.00;;;7.30
18219;BMP180;9234;49.344;11.120;2022-12-29T07:11:40;97005.00;;;7.40
18219;BMP180;9234;49.344;11.120;2022-12-29T07:14:10;97009.00;;;7.30
18219;BMP180;9234;49.344;11.120;2022-12-29T07:16:39;97002.00;;;7.30
18219;BMP180;9234;49.344;11.120;2022-12-29T07:19:09;97004.00;;;7.30
18219;BMP180;9234;49.344;11.120;2022-12-29T07:21:37;97016.00;;;7.40
18219;BMP180;9234;49.344;11.120;2022-12-29T07:24:13;97030.00;;;7.40
18219;BMP180;9234;49.344;11.120;2022-12-29T07:26:41;97023.00;;;7.40
18219;BMP180;9234;49.344;11.120;2022-12-29T07:29:09;97020.00;;;7.50
18219;BMP180;9234;49.344;11.120;2022-12-29T07:31:37;97013.00;;;7.50
18219;BMP180;9234;49.344;11.120;2022-12-29T07:34:08;97023.00;;;7.60
18219;BMP180;9234;49.344;11.120;2022-12-29T07:36:36;97027.00;;;7.70
18219;BMP180;9234;49.344;11.120;2022-12-29T07:39:04;97034.00;;;7.90
18219;BMP180;9234;49.344;11.120;2022-12-29T07:41:33;97033.00;;;8.00
18219;BMP180;9234;49.344;11.120;2022-12-29T07:44:03;97022.00;;;8.00
18219;BMP180;9234;49.344;11.120;2022-12-29T07:46:55;97026.00;;;8.10
18219;BMP180;9234;49.344;11.120;2022-12-29T07:49:26;97035.00;;;8.20
18219;BMP180;9234;49.344;11.120;2022-12-29T07:51:54;97038.00;;;8.30
18219;BMP180;9234;49.344;11.120;2022-12-29T07:54:22;97034.00;;;8.30
18219;BMP180;9234;49.344;11.120;2022-12-29T07:56:51;97042.00;;;8.40
18219;BMP180;9234;49.344;11.120;2022-12-29T07:59:19;97044.00;;;8.40
18219;BMP180;9234;49.344;11.120;2022-12-29T08:01:48;97043.00;;;8.40
18219;BMP180;9234;49.344;11.120;2022-12-29T08:04:16;97045.00;;;8.40
18219;BMP180;9234;49.344;11.120;2022-12-29T08:06:46;97041.00;;;8.40
18219;BMP180;9234;49.344;11.120;2022-12-29T08:09:14;97045.00;;;8.50
18219;BMP180;9234;49.344;11.120;2022-12-29T08:11:48;97042.00;;;8.50
18219;BMP180;9234;49.344;11.120;2022-12-29T08:14:17;97035.00;;;8.60
18219;BMP180;9234;49.344;11.120;2022-12-29T08:16:45;97025.00;;;8.60
18219;BMP180;9234;49.344;11.120;2022-12-29T08:19:14;97039.00;;;8.60
18219;BMP180;9234;49.344;11.120;2022-12-29T08:21:42;97043.00;;;8.70
18219;BMP180;9234;49.344;11.120;2022-12-29T08:24:12;97031.00;;;8.80
18219;BMP180;9234;49.344;11.120;2022-12-29T08:26:40;97035.00;;;8.80
18219;BMP180;9234;49.344;11.120;2022-12-29T08:29:08;97042.00;;;8.90
18219;BMP180;9234;49.344;11.120;2022-12-29T08:31:36;97033.00;;;8.90
18219;BMP180;9234;49.344;11.120;2022-12-29T08:34:05;97035.00;;;9.00
18219;BMP180;9234;49.344;11.120;2022-12-29T08:36:33;97045.00;;;9.00
18219;BMP180;9234;49.344;11.120;2022-12-29T08:39:01;97051.00;;;9.00
18219;BMP180;9234;49.344;11.120;2022-12-29T08:41:31;97060.00;;;9.10
18219;BMP180;9234;49.344;11.120;2022-12-29T08:43:59;97047.00;;;9.20
18219;BMP180;9234;49.344;11.120;2022-12-29T08:46:28;97032.00;;;9.20
18219;BMP180;9234;49.344;11.120;2022-12-29T08:48:57;97044.00;;;9.30
18219;BMP180;9234;49.344;11.120;2022-12-29T08:51:25;97047.00;;;9.40
18219;BMP180;9234;49.344;11.120;2022-12-29T08:53:53;97048.00;;;9.50
18219;BMP180;9234;49.344;11.120;2022-12-29T08:56:22;97053.00;;;9.60
18219;BMP180;9234;49.344;11.120;2022-12-29T08:58:56;97047.00;;;9.60
18219;BMP180;9234;49.344;11.120;2022-12-29T09:01:27;97056.00;;;9.70
18219;BMP180;9234;49.344;11.120;2022-12-29T09:03:55;97051.00;;;9.90
18219;BMP180;9234;49.344;11.120;2022-12-29T09:06:44;97046.00;;;10.00
18219;BMP180;9234;49.344;11.120;2022-12-29T09:09:13;97058.00;;;10.20
18219;BMP180;9234;49.344;11.120;2022-12-29T09:11:42;97048.00;;;10.30
18219;BMP180;9234;49.344;11.120;2022-12-29T09:14:12;97058.00;;;10.50
18219;BMP180;9234;49.344;11.120;2022-12-29T09:16:41;97049.00;;;10.70
18219;BMP180;9234;49.344;11.120;2022-12-29T09:19:27;97057.00;;;10.80
18219;BMP180;9234;49.344;11.120;2022-12-29T09:21:55;97069.00;;;10.90
18219;BMP180;9234;49.344;11.120;2022-12-29T09:24:23;97047.00;;;11.00
18219;BMP180;9234;49.344;11.120;2022-12-29T09:26:52;97055.00;;;11.00
18219;BMP180;9234;49.344;11.120;2022-12-29T09:29:22;97053.00;;;11.00
18219;BMP180;9234;49.344;11.120;2022-12-29T09:31:50;97056.00;;;11.10
18219;BMP180;9234;49.344;11.120;2022-12-29T09:34:18;97055.00;;;11.20
18219;BMP180;9234;49.344;11.120;2022-12-29T09:36:46;97066.00;;;11.30
18219;BMP180;9234;49.344;11.120;2022-12-29T09:39:14;97045.00;;;11.40
18219;BMP180;9234;49.344;11.120;2022-12-29T09:41:49;97046.00;;;11.50
18219;BMP180;9234;49.344;11.120;2022-12-29T09:44:31;97048.00;;;11.60
18219;BMP180;9234;49.344;11.120;2022-12-29T09:47:11;97049.00;;;11.70
18219;BMP180;9234;49.344;11.120;2022-12-29T09:49:47;97041.00;;;11.80
18219;BMP180;9234;49.344;11.120;2022-12-29T09:52:22;97045.00;;;11.80
18219;BMP180;9234;49.344;11.120;2022-12-29T09:54:59;97034.00;;;11.90
18219;BMP180;9234;49.344;11.120;2022-12-29T09:57:40;97042.00;;;11.90
18219;BMP180;9234;49.344;11.120;2022-12-29T10:00:16;97043.00;;;12.00
18219;BMP180;9234;49.344;11.120;2022-12-29T10:02:50;97042.00;;;12.10
18219;BMP180;9234;49.344;11.120;2022-12-29T10:05:33;97050.00;;;12.20
18219;BMP180;9234;49.344;11.120;2022-12-29T10:08:29;97044.00;;;12.20
18219;BMP180;9234;49.344;11.120;2022-12-29T10:11:08;97027.00;;;12.20
18219;BMP180;9234;49.344;11.120;2022-12-29T10:14:05;97029.00;;;12.30
18219;BMP180;9234;49.344;11.120;2022-12-29T10:16:52;97028.00;;;12.30
18219;BMP180;9234;49.344;11.120;2022-12-29T10:22:41;97032.00;;;12.50
18219;BMP180;9234;49.344;11.120;2022-12-29T10:25:17;97034.00;;;12.50
18219;BMP180;9234;49.344;11.120;2022-12-29T10:27:49;97027.00;;;12.50
18219;BMP180;9234;49.344;11.120;2022-12-29T10:30:18;97029.00;;;12.50
18219;BMP180;9234;49.344;11.120;2022-12-29T10:32:54;97018.00;;;12.50
18219;BMP180;9234;49.344;11.120;2022-12-29T10:35:26;97019.00;;;12.60
18219;BMP180;9234;49.344;11.120;2022-12-29T10:38:02;97010.00;;;12.60
18219;BMP180;9234;49.344;11.120;2022-12-29T10:40:38;97016.00;;;12.70
18219;BMP180;9234;49.344;11.120;2022-12-29T10:43:23;97001.00;;;12.70
18219;BMP180;9234;49.344;11.120;2022-12-29T10:45:54;97011.00;;;12.70
18219;BMP180;9234;49.344;11.120;2022-12-29T10:48:31;96998.00;;;12.70
18219;BMP180;9234;49.344;11.120;2022-12-29T10:51:02;96998.00;;;12.70
18219;BMP180;9234;49.344;11.120;2022-12-29T10:53:40;96991.00;;;12.60
18219;BMP180;9234;49.344;11.120;2022-12-29T10:56:22;96996.00;;;12.60
18219;BMP180;9234;49.344;11.120;2022-12-29T10:58:57;96985.00;;;12.60
18219;BMP180;9234;49.344;11.120;2022-12-29T11:01:36;96988.00;;;12.60
18219;BMP180;9234;49.344;11.120;2022-12-29T11:04:26;96989.00;;;12.60
18219;BMP180;9234;49.344;11.120;2022-12-29T11:06:57;96981.00;;;12.60
18219;BMP180;9234;49.344;11.120;2022-12-29T11:09:29;96996.00;;;12.60
18219;BMP180;9234;49.344;11.120;2022-12-29T11:12:24;96993.00;;;12.60
18219;BMP180;9234;49.344;11.120;2022-12-29T11:15:13;96984.00;;;12.60
18219;BMP180;9234;49.344;11.120;2022-12-29T11:17:47;96999.00;;;12.60
18219;BMP180;9234;49.344;11.120;2022-12-29T11:20:30;96974.00;;;12.70
18219;BMP180;9234;49.344;11.120;2022-12-29T11:22:59;96978.00;;;12.80
18219;BMP180;9234;49.344;11.120;2022-12-29T11:25:27;96986.00;;;12.90
18219;BMP180;9234;49.344;11.120;2022-12-29T11:27:59;96991.00;;;13.00
18219;BMP180;9234;49.344;11.120;2022-12-29T11:30:30;96985.00;;;13.10
18219;BMP180;9234;49.344;11.120;2022-12-29T11:33:03;96982.00;;;13.20
18219;BMP180;9234;49.344;11.120;2022-12-29T11:35:38;96979.00;;;13.30
18219;BMP180;9234;49.344;11.120;2022-12-29T11:38:19;96986.00;;;13.30
18219;BMP180;9234;49.344;11.120;2022-12-29T11:40:49;96984.00;;;13.40
18219;BMP180;9234;49.344;11.120;2022-12-29T11:43:29;96988.00;;;13.40
18219;BMP180;9234;49.344;11.120;2022-12-29T11:46:01;96978.00;;;13.50
18219;BMP180;9234;49.344;11.120;2022-12-29T11:48:39;96983.00;;;13.50
18219;BMP180;9234;49.344;11.120;2022-12-29T11:51:10;96968.00;;;13.60
18219;BMP180;9234;49.344;11.120;2022-12-29T11:53:45;96976.00;;;13.70
18219;BMP180;9234;49.344;11.120;2022-12-29T11:56:18;96981.00;;;13.80
18219;BMP180;9234;49.344;11.120;2022-12-29T11:58:50;96980.00;;;13.90
18219;BMP180;9234;49.344;11.120;2022-12-29T12:01:29;96977.00;;;14.00
18219;BMP180;9234;49.344;11.120;2022-12-29T12:04:04;96971.00;;;14.00
18219;BMP180;9234;49.344;11.120;2022-12-29T12:06:44;96972.00;;;14.10
18219;BMP180;9234;49.344;11.120;2022-12-29T12:09:21;96964.00;;;14.30
18219;BMP180;9234;49.344;11.120;2022-12-29T12:11:54;96958.00;;;14.30
18219;BMP180;9234;49.344;11.120;2022-12-29T12:14:30;96958.00;;;14.40
18219;BMP180;9234;49.344;11.120;2022-12-29T12:17:29;96965.00;;;14.50
18219;BMP180;9234;49.344;11.120;2022-12-29T12:20:17;96968.00;;;14.50
18219;BMP180;9234;49.344;11.120;2022-12-29T12:23:06;96953.00;;;14.60
18219;BMP180;9234;49.344;11.120;2022-12-29T12:25:48;96971.00;;;14.70
18219;BMP180;9234;49.344;11.120;2022-12-29T12:28:28;96968.00;;;14.80
18219;BMP180;9234;49.344;11.120;2022-12-29T12:31:13;96961.00;;;14.70
18219;BMP180;9234;49.344;11.120;2022-12-29T12:33:47;96967.00;;;14.70
18219;BMP180;9234;49.344;11.120;2022-12-29T12:36:49;96964.00;;;14.70
18219;BMP180;9234;49.344;11.120;2022-12-29T12:39:31;96973.00;;;14.80
18219;BMP180;9234;49.344;11.120;2022-12-29T12:42:23;96965.00;;;14.80
18219;BMP180;9234;49.344;11.120;2022-12-29T12:45:21;96951.00;;;14.80
18219;BMP180;9234;49.344;11.120;2022-12-29T12:48:07;96957.00;;;14.90
18219;BMP180;9234;49.344;11.120;2022-12-29T12:50:52;96971.00;;;14.90
18219;BMP180;9234;49.344;11.120;2022-12-29T12:53:49;96966.00;;;14.80
18219;BMP180;9234;49.344;11.120;2022-12-29T12:56:55;96967.00;;;14.80
18219;BMP180;9234;49.344;11.120;2022-12-29T12:59:46;96973.00;;;14.70
18219;BMP180;9234;49.344;11.120;2022-12-29T13:02:34;96958.00;;;14.60
18219;BMP180;9234;49.344;11.120;2022-12-29T13:05:29;96965.00;;;14.60
18219;BMP180;9234;49.344;11.120;2022-12-29T13:08:30;96958.00;;;14.50
18219;BMP180;9234;49.344;11.120;2022-12-29T13:11:14;96960.00;;;14.50
18219;BMP180;9234;49.344;11.120;2022-12-29T13:14:16;96972.00;;;14.50
18219;BMP180;9234;49.344;11.120;2022-12-29T13:16:58;96978.00;;;14.50
18219;BMP180;9234;49.344;11.120;2022-12-29T13:19:36;96978.00;;;14.40
18219;BMP180;9234;49.344;11.120;2022-12-29T13:22:11;96970.00;;;14.40
18219;BMP180;9234;49.344;11.120;2022-12-29T13:25:01;96965.00;;;14.30
18219;BMP180;9234;49.344;11.120;2022-12-29T13:27:43;96959.00;;;14.30
18219;BMP180;9234;49.344;11.120;2022-12-29T13:30:18;96971.00;;;14.30
18219;BMP180;9234;49.344;11.120;2022-12-29T13:32:58;96974.00;;;14.20
18219;BMP180;9234;49.344;11.120;2022-12-29T13:35:48;96962.00;;;14.10
18219;BMP180;9234;49.344;11.120;2022-12-29T13:38:24;96978.00;;;14.10
18219;BMP180;9234;49.344;11.120;2022-12-29T13:40:57;96968.00;;;14.10
18219;BMP180;9234;49.344;11.120;2022-12-29T13:43:29;96971.00;;;14.10
18219;BMP180;9234;49.344;11.120;2022-12-29T13:46:07;96973.00;;;14.10
18219;BMP180;9234;49.344;11.120;2022-12-29T13:48:41;96989.00;;;14.10
18219;BMP180;9234;49.344;11.120;2022-12-29T13:51:12;96975.00;;;14.10
18219;BMP180;9234;49.344;11.120;2022-12-29T13:54:00;96987.00;;;14.00
18219;BMP180;9234;49.344;11.120;2022-12-29T13:56:38;96984.00;;;14.00
18219;BMP180;9234;49.344;11.120;2022-12-29T13:59:18;96987.00;;;13.90
18219;BMP180;9234;49.344;11.120;2022-12-29T14:01:57;96993.00;;;13.80
18219;BMP180;9234;49.344;11.120;2022-12-29T14:04:30;97004.00;;;13.80
18219;BMP180;9234;49.344;11.120;2022-12-29T14:07:04;96993.00;;;13.70
18219;BMP180;9234;49.344;11.120;2022-12-29T14:09:46;96996.00;;;13.60
18219;BMP180;9234;49.344;11.120;2022-12-29T14:12:37;97006.00;;;13.50
18219;BMP180;9234;49.344;11.120;2022-12-29T14:15:21;96997.00;;;13.30
18219;BMP180;9234;49.344;11.120;2022-12-29T14:18:10;97008.00;;;13.30
18219;BMP180;9234;49.344;11.120;2022-12-29T14:20:52;96999.00;;;13.10
18219;BMP180;9234;49.344;11.120;2022-12-29T14:23:46;97009.00;;;13.10
18219;BMP180;9234;49.344;11.120;2022-12-29T14:26:18;96997.00;;;13.00
18219;BMP180;9234;49.344;11.120;2022-12-29T14:29:44;97006.00;;;13.00
18219;BMP180;9234;49.344;11.120;2022-12-29T14:32:37;96991.00;;;12.90
18219;BMP180;9234;49.344;11.120;2022-12-29T14:35:40;96998.00;;;12.90
18219;BMP180;9234;49.344;11.120;2022-12-29T14:38:27;96992.00;;;12.80
18219;BMP180;9234;49.344;11.120;2022-12-29T14:41:24;96999.00;;;12.80
18219;BMP180;9234;49.344;11.120;2022-12-29T14:43:57;96981.00;;;12.70
18219;BMP180;9234;49.344;11.120;2022-12-29T14:46:56;96999.00;;;12.70
18219;BMP180;9234;49.344;11.120;2022-12-29T14:49:28;97000.00;;;12.60
18219;BMP180;9234;49.344;11.120;2022-12-29T14:52:13;96996.00;;;12.60
18219;BMP180;9234;49.344;11.120;2022-12-29T14:54:52;97008.00;;;12.60
18219;BMP180;9234;49.344;11.120;2022-12-29T14:57:35;96992.00;;;12.50
18219;BMP180;9234;49.344;11.120;2022-12-29T15:00:15;96992.00;;;12.50
18219;BMP180;9234;49.344;11.120;2022-12-29T15:02:49;96992.00;;;12.40
18219;BMP180;9234;49.344;11.120;2022-12-29T15:05:33;96996.00;;;12.40
18219;BMP180;9234;49.344;11.120;2022-12-29T15:08:05;96997.00;;;12.30
18219;BMP180;9234;49.344;11.120;2022-12-29T15:10:42;97016.00;;;12.30
18219;BMP180;9234;49.344;11.120;2022-12-29T15:13:21;96997.00;;;12.20
18219;BMP180;9234;49.344;11.120;2022-12-29T15:15:50;97003.00;;;12.20